createdAt,value
2023-02-28T00:00:53.885Z,9.90
2023-02-28T00:10:54.129Z,8.60
2023-02-28T00:20:54.468Z,8.00
2023-02-28T00:30:54.525Z,9.20
2023-02-28T00:40:55.754Z,10.20
2023-02-28T00:50:55.003Z,9.70
2023-02-28T01:00:55.400Z,10.80
2023-02-28T01:10:55.464Z,8.50
2023-02-28T01:20:55.789Z,9.50
2023-02-28T01:30:55.849Z,10.30
2023-02-28T01:40:56.156Z,11.20
2023-02-28T01:50:56.207Z,11.20
2023-02-28T02:00:56.530Z,9.00
2023-02-28T02:10:56.580Z,10.60
2023-02-28T02:20:56.886Z,10.70
2023-02-28T02:30:56.925Z,12.20
2023-02-28T02:40:58.174Z,12.00
2023-02-28T02:50:57.425Z,12.80
2023-02-28T03:00:57.769Z,12.40
2023-02-28T03:10:57.795Z,12.60
2023-02-28T03:20:58.098Z,12.30
2023-02-28T03:31:03.641Z,12.20
2023-02-28T03:40:58.271Z,12.90
2023-02-28T03:50:58.510Z,12.70
2023-02-28T04:00:58.733Z,13.70
2023-02-28T04:10:58.977Z,14.70
2023-02-28T04:20:59.196Z,14.80
2023-02-28T04:30:59.474Z,11.90
2023-02-28T04:40:59.502Z,13.30
2023-02-28T04:50:59.851Z,13.00
2023-02-28T05:00:59.878Z,13.80
2023-02-28T05:11:00.216Z,13.60
2023-02-28T05:21:00.240Z,12.40
2023-02-28T05:31:00.590Z,15.20
2023-02-28T05:41:00.639Z,14.90
2023-02-28T05:51:00.945Z,13.50
2023-02-28T06:01:00.993Z,13.20
2023-02-28T06:11:01.322Z,13.40
2023-02-28T06:21:01.344Z,16.70
2023-02-28T06:31:01.628Z,17.50
2023-02-28T06:41:01.728Z,20.40
2023-02-28T06:51:02.066Z,18.60
2023-02-28T07:01:02.103Z,15.60
2023-02-28T07:11:02.425Z,21.70
2023-02-28T07:21:02.460Z,14.70
2023-02-28T07:31:02.814Z,16.70
2023-02-28T07:41:02.930Z,13.90
2023-02-28T07:51:03.083Z,14.50
2023-02-28T08:01:03.173Z,16.30
2023-02-28T08:11:06.518Z,16.60
2023-02-28T08:21:03.349Z,15.00
2023-02-28T08:31:03.616Z,16.90
2023-02-28T08:41:03.648Z,15.90
2023-02-28T08:51:08.537Z,18.30
2023-02-28T09:01:04.080Z,16.20
2023-02-28T09:11:04.142Z,16.10
2023-02-28T09:21:04.382Z,14.90
2023-02-28T09:31:04.769Z,17.60
2023-02-28T09:41:04.869Z,14.60
2023-02-28T09:51:05.199Z,14.30
2023-02-28T10:01:05.296Z,14.80
2023-02-28T10:11:05.482Z,16.00
2023-02-28T10:21:05.543Z,14.10
2023-02-28T10:31:08.951Z,13.60
2023-02-28T10:41:06.100Z,15.60
2023-02-28T10:51:06.206Z,14.60
2023-02-28T11:01:06.237Z,14.20
2023-02-28T11:11:06.584Z,14.70
2023-02-28T11:21:06.610Z,15.50
2023-02-28T11:31:08.896Z,14.70
2023-02-28T11:41:06.938Z,15.60
2023-02-28T11:51:07.204Z,15.90
2023-02-28T12:01:07.514Z,13.90
2023-02-28T12:11:07.584Z,14.20
2023-02-28T12:21:07.634Z,13.70
2023-02-28T12:31:08.043Z,13.70
2023-02-28T12:41:08.100Z,13.50
2023-02-28T12:51:10.383Z,12.60
2023-02-28T13:01:08.642Z,12.80
2023-02-28T13:11:20.846Z,14.10
2023-02-28T13:21:09.863Z,12.50
2023-02-28T13:31:09.206Z,14.80
2023-02-28T13:41:09.255Z,12.30
2023-02-28T13:51:09.539Z,13.70
2023-02-28T14:01:09.603Z,14.60
2023-02-28T14:11:10.733Z,13.00
2023-02-28T14:21:09.794Z,14.00
2023-02-28T14:31:10.179Z,14.00
2023-02-28T14:41:10.271Z,14.80
2023-02-28T14:51:10.549Z,13.90
2023-02-28T15:01:10.686Z,14.10
2023-02-28T15:11:10.824Z,16.10
2023-02-28T15:21:10.883Z,16.90
2023-02-28T15:31:11.237Z,16.80
2023-02-28T15:41:11.280Z,18.30
2023-02-28T15:51:11.555Z,18.70
2023-02-28T16:01:11.606Z,19.40
2023-02-28T16:11:12.105Z,21.50
2023-02-28T16:21:11.995Z,21.40
2023-02-28T16:31:12.347Z,21.90
2023-02-28T16:41:12.606Z,21.70
2023-02-28T16:51:12.586Z,23.90
2023-02-28T17:01:12.688Z,22.90
2023-02-28T17:11:13.062Z,22.70
2023-02-28T17:21:12.981Z,28.00
2023-02-28T17:31:13.560Z,27.90
2023-02-28T17:41:13.384Z,28.40
2023-02-28T17:51:13.745Z,25.10
2023-02-28T18:01:13.727Z,25.70
2023-02-28T18:11:17.188Z,26.10
2023-02-28T18:21:14.085Z,28.20
2023-02-28T18:31:14.731Z,27.10
2023-02-28T18:41:14.775Z,25.80
2023-02-28T18:51:14.782Z,27.20
2023-02-28T19:01:15.110Z,28.80
2023-02-28T19:11:15.397Z,27.70
2023-02-28T19:21:15.314Z,28.60
2023-02-28T19:31:15.957Z,26.20
2023-02-28T19:41:15.982Z,27.70
2023-02-28T20:01:16.392Z,28.60
2023-02-28T20:11:18.416Z,30.50
2023-02-28T20:21:16.708Z,29.40
2023-02-28T20:31:16.553Z,29.70
2023-02-28T20:41:16.875Z,30.60
2023-02-28T20:51:18.099Z,29.50
2023-02-28T21:01:18.128Z,32.00
2023-02-28T21:11:17.283Z,32.80
2023-02-28T21:21:17.548Z,28.80
2023-02-28T21:31:18.019Z,30.20
2023-02-28T21:41:17.944Z,29.30
2023-02-28T21:51:18.224Z,34.60
2023-02-28T22:01:18.360Z,35.70
2023-02-28T22:11:18.491Z,34.60
2023-02-28T22:21:18.521Z,32.10
2023-02-28T22:31:18.871Z,32.30
2023-02-28T22:41:18.928Z,31.30
2023-02-28T22:51:19.231Z,31.70
2023-02-28T23:01:19.318Z,34.60
2023-02-28T23:11:19.500Z,29.80
2023-02-28T23:21:19.568Z,28.50
2023-02-28T23:31:19.884Z,32.10
2023-02-28T23:41:19.935Z,33.40
2023-02-28T23:51:20.240Z,32.30
